contacte
inicio
- ACTUALIZADO a las 20:46
Cámara en vivo
A 5 metros de altura
Dirección Noreste
Datos del día de Hoy
Parameter                   Max   Max Time        Min   Min Time    Average
Wind Direction              360       4:13          5       4:19         68
Wind Speed                   18       9:45          0       0:00          2
Wind Gust                    24       9:45          0       0:00          9
In Humidity                  43       3:31         27      18:34         37
Humidity                     63       7:46         21      18:28         42
In Temp                    34.2      19:22       29.9       8:51       31.9
Out Temp                   38.9      17:46       23.4       6:30       30.5
Raw Barometer           1018.89      11:25    1016.02      18:49    1017.52
Total Rain               266.40       0:00     266.40       0:00     266.40




6/9/26
Time         Wind Dir   Wind Spd  Wind Gust     Hum In   Humidity    Temp In       Temp  Raw Barom   Tot Rain
                    °      km/hr      km/hr          %          %         °C         °C         mb         mm
0:00              339          0          5         41         48       31.7       28.6    1017.54     266.40
0:20              260          0          6         41         50       31.7       27.8    1017.54     266.40
0:40              260          0          2         42         51       31.6       27.4    1017.78     266.40
1:00              261          0          2         42         51       31.6       27.2    1017.74     266.40
1:20              262          0          5         42         51       31.6       26.8    1017.84     266.40
1:40              262          0          3         42         51       31.5       26.7    1017.81     266.40
2:00              263          0          5         42         51       31.4       26.6    1017.74     266.40
2:20              263          0          0         42         54       31.4       26.4    1017.81     266.40
2:40              263          0          3         42         57       31.3       25.9    1017.84     266.40
3:00              263          0          3         42         59       31.2       25.7    1017.74     266.40
3:20              337          0          6         42         59       31.2       25.6    1017.57     266.40
3:40              336          0          0         42         59       31.1       25.7    1017.57     266.40
4:00              336          0          3         43         59       31.1       25.3    1017.51     266.40
4:20                5          3          3         43         58       31.0       24.2    1017.47     266.40
4:40                5          0          3         42         59       30.9       23.9    1017.40     266.40
5:00                5          0          3         42         58       30.8       23.8    1017.40     266.40
5:20                5          0          2         42         57       30.7       23.9    1017.54     266.40
5:40                5          0          0         42         57       30.6       23.7    1017.81     266.40
6:00               11          0          2         42         56       30.5       23.6    1017.40     266.40
6:20               11          0          2         42         59       30.5       23.6    1017.44     266.40
6:40               15          5          5         42         61       30.4       23.6    1017.27     266.40
7:00               38          0         10         42         61       30.3       23.8    1017.54     266.40
7:20               37          0         14         42         62       30.3       23.8    1017.30     266.40
7:40               79          0          8         42         61       30.2       23.7    1017.51     266.40
8:00               74          0          8         42         63       30.2       23.4    1017.51     266.40
8:20               58          8         11         42         59       30.1       23.6    1017.71     266.40
8:40               50          0         10         42         57       30.0       23.8    1018.05     266.40
9:00               43          3         14         42         53       30.0       24.5    1018.32     266.40
9:20               72          2          8         40         50       30.4       25.4    1018.42     266.40
9:40               47          0         10         39         47       30.7       26.6    1018.42     266.40
10:00              88          8         18         39         43       30.9       27.6    1018.62     266.40
10:20              55          6         14         37         41       31.2       28.2    1018.62     266.40
10:40              69          3          6         37         39       31.5       29.2    1018.65     266.40
11:00              27          5         11         36         38       31.7       30.1    1018.72     266.40
11:20              63          0         11         36         38       31.9       30.6    1018.76     266.40
11:40             107          3         10         35         37       32.2       31.2    1018.76     266.40
12:00             110          5         11         36         35       32.3       32.0    1018.76     266.40
12:20              98          0         11         35         33       32.3       32.5    1018.76     266.40
12:40             100          0         11         35         33       32.3       33.2    1018.52     266.40
13:00             104          3         11         35         32       32.4       33.7    1018.49     266.40
13:20             118          2          8         35         31       32.4       34.3    1018.32     266.40
13:40             130          3          8         35         29       32.4       35.2    1018.15     266.40
14:00             146          2         11         35         28       32.4       35.8    1018.01     266.40
14:20             131          6         14         35         28       32.4       36.3    1017.78     266.40
14:40             128          3         11         33         28       32.7       36.6    1017.37     266.40
15:00              86          0         14         32         27       32.9       37.3    1017.17     266.40
15:20             123          5         14         31         26       33.1       37.6    1017.07     266.40
15:40             210          3         11         31         25       33.2       37.9    1017.03     266.40
16:00             215          2         13         30         23       33.3       38.2    1016.90     266.40
16:20             194          8         10         30         24       33.3       38.0    1016.83     266.40
16:40             186          5          8         29         23       33.5       38.2    1016.69     266.40
17:00             184          5         11         29         23       33.6       38.1    1016.42     266.40
17:20             218          2         10         28         24       33.7       38.2    1016.36     266.40
17:39             232          0          5         28         22       33.8       38.8    1016.25     266.40
18:00             249          5          8         29         23       33.9       38.8    1016.15     266.40
18:20             217          0         10         28         24       34.0       38.6    1016.15     266.40
18:40             215          0         10         27         22       34.1       38.6    1016.09     266.40
19:00             230          0         10         27         23       34.1       38.6    1016.05     266.40
19:20             218          2          8         28         22       34.1       38.3    1016.12     266.40
19:40             223          5          8         28         28       34.1       38.2    1016.12     266.40
20:00             250          5         16         31         33       34.1       36.5    1016.22     266.40
20:20             259          0         18         32         34       34.0       35.3    1016.39     266.40
20:40             294          6         13         33         35       33.8       34.3    1016.42     266.40
Miembro de: